Time;durP1;ratioP1;P1;durP2;ratioP2;P2;SDS_P1;SDS_P2;PMS_P1;PMS_P2;Temp;Humidity;BMP_temperature;BMP_pressure;BME280_temperature;BME280_humidity;BME280_pressure;Samples;Min_cycle;Max_cycle;Signal;HPM_P1;HPM_P2
2022/04/15 00:00:38;;;;;;;108.20;55.75;;;282.30;1382.40;;;;;;4842518;29;20381;-60
2022/04/15 00:03:07;;;;;;;96.22;48.05;;;282.30;1408.00;;;;;;4842590;29;20045;-60
2022/04/15 00:05:36;;;;;;;94.10;48.58;;;282.30;1459.20;;;;;;4843093;29;20033;-61
2022/04/15 00:08:10;;;;;;;100.35;55.13;;;282.30;1459.20;;;;;;4842533;29;20026;-61
2022/04/15 00:10:37;;;;;;;101.72;51.83;;;282.30;1433.60;;;;;;4842355;29;20034;-61
2022/04/15 00:13:06;;;;;;;92.68;47.15;;;282.30;1433.60;;;;;;4842289;29;20070;-61
2022/04/15 00:15:33;;;;;;;103.00;50.92;;;282.20;1408.00;;;;;;4842755;29;20030;-61
2022/04/15 00:17:59;;;;;;;110.00;52.33;;;282.10;1459.20;;;;;;4842710;29;20532;-61
2022/04/15 00:20:26;;;;;;;89.68;47.75;;;282.10;1459.20;;;;;;4842669;29;20034;-61
2022/04/15 00:22:53;;;;;;;92.75;48.95;;;282.10;1459.20;;;;;;4842597;29;20041;-61
2022/04/15 00:25:19;;;;;;;90.72;47.25;;;282.10;1484.80;;;;;;4842399;29;20029;-61
2022/04/15 00:27:44;;;;;;;97.38;47.40;;;282.10;1459.20;;;;;;4842477;29;20033;-61
2022/04/15 00:30:11;;;;;;;84.72;45.38;;;282.10;1484.80;;;;;;4847643;29;20049;-61
2022/04/15 00:32:37;;;;;;;83.90;44.17;;;282.00;1484.80;;;;;;4860796;29;20047;-61
2022/04/15 00:35:04;;;;;;;78.68;43.33;;;282.00;1484.80;;;;;;4860957;29;20032;-61
2022/04/15 00:37:31;;;;;;;77.03;42.42;;;281.90;1484.80;;;;;;4860712;29;20025;-61
2022/04/15 00:39:57;;;;;;;82.15;39.78;;;281.90;1484.80;;;;;;4860734;29;20029;-61
2022/04/15 00:42:23;;;;;;;82.78;42.92;;;281.90;1459.20;;;;;;4860919;29;20037;-61
2022/04/15 00:44:53;;;;;;;81.60;43.60;;;281.90;1459.20;;;;;;4860802;29;20593;-61
2022/04/15 00:47:29;;;;;;;79.82;42.05;;;281.80;1459.20;;;;;;4862455;29;20033;-61
2022/04/15 00:49:56;;;;;;;79.28;41.42;;;281.80;1459.20;;;;;;4863924;29;20429;-61
2022/04/15 00:52:26;;;;;;;73.65;39.63;;;281.80;1459.20;;;;;;4864144;29;20468;-61
2022/04/15 00:54:54;;;;;;;74.15;41.72;;;281.80;1433.60;;;;;;4863815;29;20377;-61
2022/04/15 00:57:25;;;;;;;77.93;41.65;;;281.70;1484.80;;;;;;4847547;29;20049;-61
2022/04/15 00:59:54;;;;;;;86.00;46.00;;;281.70;1459.20;;;;;;4863941;29;20061;-61
2022/04/15 01:02:21;;;;;;;86.18;45.47;;;281.60;1484.80;;;;;;4863752;29;20089;-60
2022/04/15 01:04:51;;;;;;;81.22;42.45;;;281.60;1484.80;;;;;;4863705;29;20044;-61
2022/04/15 01:07:22;;;;;;;85.05;46.25;;;281.60;1484.80;;;;;;4863611;29;20082;-61
2022/04/15 01:09:52;;;;;;;99.07;51.25;;;256.90;1459.20;;;;;;4863816;29;20053;-61
2022/04/15 01:12:20;;;;;;;86.63;46.53;;;256.90;1459.20;;;;;;4863731;29;20063;-61
2022/04/15 01:14:47;;;;;;;91.47;47.40;;;256.90;1459.20;;;;;;4863796;29;20384;-61
2022/04/15 01:17:13;;;;;;;98.63;50.67;;;256.90;1459.20;;;;;;4863546;29;20038;-61
2022/04/15 01:19:39;;;;;;;107.82;53.90;;;256.80;1484.80;;;;;;4863568;29;20342;-61
2022/04/15 01:22:12;;;;;;;97.78;50.40;;;256.80;1484.80;;;;;;4863068;29;20030;-61
2022/04/15 01:24:38;;;;;;;105.80;52.90;;;256.80;1484.80;;;;;;4863526;29;20053;-61
2022/04/15 01:27:08;;;;;;;106.97;53.15;;;256.80;1484.80;;;;;;4863479;29;20033;-61
2022/04/15 01:29:40;;;;;;;105.55;52.78;;;256.70;1484.80;;;;;;4863012;29;20498;-61
2022/04/15 01:32:07;;;;;;;108.55;53.83;;;256.70;1484.80;;;;;;4863078;29;20041;-61
2022/04/15 01:34:34;;;;;;;101.15;51.95;;;256.60;1484.80;;;;;;4863150;29;20121;-61
2022/04/15 01:37:00;;;;;;;100.32;50.55;;;256.60;1484.80;;;;;;4862856;29;20033;-61
2022/04/15 01:39:31;;;;;;;102.88;50.85;;;256.50;1484.80;;;;;;4863183;29;20090;-61
2022/04/15 01:41:57;;;;;;;103.63;49.72;;;256.50;1484.80;;;;;;4863209;29;20409;-61
2022/04/15 01:44:23;;;;;;;90.05;46.15;;;256.40;1510.40;;;;;;4863429;29;20033;-61
2022/04/15 01:46:49;;;;;;;86.88;44.67;;;256.40;1510.40;;;;;;4862947;29;20029;-61
2022/04/15 01:49:15;;;;;;;89.57;44.97;;;256.40;1536.00;;;;;;4863122;29;20041;-61
2022/04/15 01:51:40;;;;;;;80.57;41.47;;;256.40;1484.80;;;;;;4862941;29;20400;-61
2022/04/15 01:54:06;;;;;;;74.57;40.35;;;256.40;1510.40;;;;;;4862883;29;20360;-60
2022/04/15 01:56:32;;;;;;;75.40;37.97;;;256.30;1484.80;;;;;;4862997;29;20030;-61
2022/04/15 01:58:57;;;;;;;81.70;38.60;;;256.40;1510.40;;;;;;4862325;29;20086;-61
2022/04/15 02:01:23;;;;;;;74.45;37.20;;;256.30;1484.80;;;;;;4862632;29;20033;-61
2022/04/15 02:03:49;;;;;;;71.30;36.40;;;256.30;1510.40;;;;;;4862808;29;20054;-61
2022/04/15 02:06:15;;;;;;;66.43;35.30;;;256.30;1510.40;;;;;;4845685;29;20124;-61
2022/04/15 02:08:41;;;;;;;61.30;33.67;;;256.30;1510.40;;;;;;4862742;29;20090;-61
2022/04/15 02:11:06;;;;;;;69.05;34.47;;;256.30;1536.00;;;;;;4862562;29;20034;-61
2022/04/15 02:13:32;;;;;;;67.13;34.95;;;256.20;1484.80;;;;;;4862630;29;20037;-61
2022/04/15 02:15:58;;;;;;;66.80;36.22;;;256.20;1510.40;;;;;;4862961;29;20418;-61
2022/04/15 02:18:26;;;;;;;61.28;33.65;;;256.30;1510.40;;;;;;4862317;29;20059;-61
2022/04/15 02:20:52;;;;;;;68.07;35.72;;;256.20;1510.40;;;;;;4862674;29;20480;-60
2022/04/15 02:23:18;;;;;;;64.65;35.30;;;256.10;1510.40;;;;;;4862579;29;20113;-61
2022/04/15 02:25:44;;;;;;;71.13;36.20;;;256.20;1510.40;;;;;;4862552;29;20220;-61
2022/04/15 02:28:09;;;;;;;62.35;35.85;;;256.20;1536.00;;;;;;4862261;29;20520;-61
2022/04/15 02:30:35;;;;;;;63.45;33.90;;;256.10;1536.00;;;;;;4861893;29;20057;-61
2022/04/15 02:33:01;;;;;;;57.45;30.75;;;256.10;1536.00;;;;;;4862042;29;20041;-60
2022/04/15 02:35:26;;;;;;;57.35;31.48;;;256.00;1510.40;;;;;;4862114;29;20033;-61
2022/04/15 02:37:52;;;;;;;70.55;31.00;;;256.00;1510.40;;;;;;4862262;29;20030;-61
2022/04/15 02:40:18;;;;;;;62.58;30.45;;;256.00;1510.40;;;;;;4862138;29;20468;-61
2022/04/15 02:42:44;;;;;;;77.82;31.98;;;256.00;1484.80;;;;;;4861865;29;20491;-60
2022/04/15 02:45:10;;;;;;;77.07;33.53;;;256.00;1510.40;;;;;;4861942;29;20353;-60
2022/04/15 02:47:36;;;;;;;66.97;34.35;;;231.30;1536.00;;;;;;4844984;29;20041;-60
2022/04/15 02:50:03;;;;;;;68.80;34.40;;;231.30;1510.40;;;;;;4861805;29;20029;-60
2022/04/15 02:52:29;;;;;;;65.95;33.88;;;231.30;1561.60;;;;;;4845068;29;20097;-60
2022/04/15 02:54:55;;;;;;;62.35;32.17;;;231.30;1561.60;;;;;;4861921;29;20473;-60
2022/04/15 02:57:20;;;;;;;52.83;27.38;;;231.20;1561.60;;;;;;4861676;29;20037;-60
2022/04/15 02:59:46;;;;;;;42.13;24.08;;;231.20;1561.60;;;;;;4861975;29;20429;-60
2022/04/15 03:02:12;;;;;;;36.85;21.13;;;231.20;1536.00;;;;;;4861766;29;20025;-60
2022/04/15 03:04:38;;;;;;;34.33;21.58;;;231.20;1536.00;;;;;;4861941;29;20407;-60
2022/04/15 03:07:04;;;;;;;41.13;22.48;;;231.20;1536.00;;;;;;4861778;29;20029;-59
2022/04/15 03:09:30;;;;;;;44.58;21.25;;;231.20;1510.40;;;;;;4861082;29;20025;-59
2022/04/15 03:11:55;;;;;;;36.08;21.30;;;231.10;1536.00;;;;;;4861568;29;20049;-60
2022/04/15 03:14:21;;;;;;;38.03;21.17;;;231.10;1536.00;;;;;;4861557;29;20030;-60
2022/04/15 03:16:47;;;;;;;45.97;22.98;;;231.10;1536.00;;;;;;4861622;29;20484;-60
2022/04/15 03:19:13;;;;;;;44.72;24.88;;;231.10;1536.00;;;;;;4861682;29;20595;-59
2022/04/15 03:21:38;;;;;;;45.58;24.73;;;231.00;1561.60;;;;;;4861423;29;20041;-60
2022/04/15 03:24:05;;;;;;;45.30;25.67;;;231.00;1536.00;;;;;;4861872;29;20032;-60
2022/04/15 03:26:31;;;;;;;36.78;23.77;;;231.00;1587.20;;;;;;4861471;29;20049;-59
2022/04/15 03:28:56;;;;;;;44.65;24.67;;;231.00;1561.60;;;;;;4861546;29;20025;-60
2022/04/15 03:31:22;;;;;;;40.10;24.88;;;231.00;1536.00;;;;;;4860646;29;20098;-60
2022/04/15 03:33:48;;;;;;;48.10;28.23;;;231.00;1587.20;;;;;;4861412;29;20105;-60
2022/04/15 03:36:15;;;;;;;43.03;26.00;;;230.90;1561.60;;;;;;4861205;29;20030;-60
2022/04/15 03:38:40;;;;;;;39.20;22.73;;;230.90;1561.60;;;;;;4861367;29;20030;-60
2022/04/15 03:41:07;;;;;;;44.90;21.90;;;230.90;1587.20;;;;;;4861281;29;20376;-60
2022/04/15 03:43:32;;;;;;;48.30;21.90;;;230.80;1561.60;;;;;;4861393;29;20113;-60
2022/04/15 03:45:59;;;;;;;45.28;20.40;;;230.80;1536.00;;;;;;4861352;29;20057;-60
2022/04/15 03:48:25;;;;;;;42.40;20.10;;;230.70;1587.20;;;;;;4861231;29;20120;-60
2022/04/15 03:50:53;;;;;;;39.08;19.67;;;230.70;1587.20;;;;;;4861081;29;20089;-59
2022/04/15 03:53:19;;;;;;;50.97;23.40;;;230.80;1612.80;;;;;;4861057;29;20116;-60
2022/04/15 03:55:45;;;;;;;73.32;31.20;;;230.80;1612.80;;;;;;4861288;29;20105;-60
2022/04/15 03:58:16;;;;;;;52.10;28.20;;;230.70;1612.80;;;;;;4860898;29;20606;-59
2022/04/15 04:00:42;;;;;;;58.80;26.88;;;230.80;1612.80;;;;;;4861249;29;20536;-60
2022/04/15 04:03:07;;;;;;;38.97;21.65;;;230.70;1612.80;;;;;;4861115;29;20116;-60
2022/04/15 04:05:33;;;;;;;50.38;22.15;;;230.70;1612.80;;;;;;4861188;29;20117;-60
2022/04/15 04:07:59;;;;;;;41.80;24.35;;;230.70;1612.80;;;;;;4844146;29;20400;-60
2022/04/15 04:10:25;;;;;;;54.45;23.70;;;230.70;1638.40;;;;;;4861044;29;20054;-60
2022/04/15 04:12:51;;;;;;;50.58;23.40;;;230.70;1638.40;;;;;;4860834;29;20101;-60
2022/04/15 04:15:17;;;;;;;37.97;19.92;;;230.70;1638.40;;;;;;4861176;29;20369;-59
2022/04/15 04:17:44;;;;;;;41.28;20.50;;;230.70;1664.00;;;;;;4861005;29;20038;-59
2022/04/15 04:20:12;;;;;;;44.92;21.98;;;230.70;1664.00;;;;;;4861146;29;20052;-62
2022/04/15 04:22:39;;;;;;;42.53;21.75;;;230.60;1664.00;;;;;;4864697;29;20040;-60
2022/04/15 04:25:09;;;;;;;38.53;19.02;;;230.60;1689.60;;;;;;4864443;29;20033;-60
2022/04/15 04:27:39;;;;;;;41.60;20.20;;;230.60;1689.60;;;;;;4864495;29;20116;-59
2022/04/15 04:30:06;;;;;;;42.13;20.80;;;230.60;1689.60;;;;;;4864359;29;20058;-60
2022/04/15 04:32:32;;;;;;;32.13;19.63;;;230.60;1689.60;;;;;;4863729;29;20140;-60
2022/04/15 04:34:58;;;;;;;29.27;16.90;;;230.60;1715.20;;;;;;4864018;29;20159;-59
2022/04/15 04:37:24;;;;;;;35.38;18.30;;;230.60;1715.20;;;;;;4864167;29;20057;-60
2022/04/15 04:39:50;;;;;;;27.05;17.40;;;230.70;1715.20;;;;;;4864196;29;20033;-59
2022/04/15 04:42:16;;;;;;;34.22;18.70;;;230.70;1715.20;;;;;;4864268;29;20036;-59
2022/04/15 04:44:42;;;;;;;38.80;19.65;;;230.70;1689.60;;;;;;4864275;29;20037;-60
2022/04/15 04:47:09;;;;;;;44.40;20.80;;;230.70;1740.80;;;;;;4864236;29;20407;-61
2022/04/15 04:49:36;;;;;;;52.58;23.88;;;230.70;1715.20;;;;;;4863989;29;20056;-60
2022/04/15 04:52:03;;;;;;;53.08;25.45;;;230.70;1715.20;;;;;;4864072;29;20120;-61
2022/04/15 04:54:30;;;;;;;49.42;25.02;;;230.80;1715.20;;;;;;4864127;29;20030;-61
2022/04/15 04:56:56;;;;;;;39.78;22.92;;;230.80;1740.80;;;;;;4864197;29;20043;-61
2022/04/15 04:59:32;;;;;;;34.42;19.67;;;230.80;1715.20;;;;;;4863933;29;20464;-61
2022/04/15 05:01:58;;;;;;;49.45;18.35;;;230.90;1715.20;;;;;;4863789;29;20085;-61
2022/04/15 05:04:24;;;;;;;27.35;13.85;;;230.90;1740.80;;;;;;4863673;29;20480;-61
2022/04/15 05:06:50;;;;;;;23.50;13.90;;;231.00;1689.60;;;;;;4863684;29;20029;-61
2022/04/15 05:09:16;;;;;;;31.10;14.32;;;231.10;1664.00;;;;;;4863688;29;20041;-61
2022/04/15 05:11:42;;;;;;;25.70;15.10;;;231.10;1689.60;;;;;;4863718;29;20037;-61
2022/04/15 05:14:08;;;;;;;24.88;14.07;;;231.20;1715.20;;;;;;4863760;29;20074;-61
2022/04/15 05:16:33;;;;;;;20.50;13.60;;;231.30;1715.20;;;;;;4846473;29;20038;-60
2022/04/15 05:18:59;;;;;;;25.52;14.25;;;256.00;1664.00;;;;;;4846901;29;20112;-61
2022/04/15 05:21:25;;;;;;;25.98;16.15;;;256.10;1664.00;;;;;;4863519;29;20037;-61
2022/04/15 05:23:51;;;;;;;21.52;14.93;;;256.20;1689.60;;;;;;4863226;29;20041;-61
2022/04/15 05:26:16;;;;;;;21.42;14.60;;;256.30;1715.20;;;;;;4863502;29;20109;-61
2022/04/15 05:28:42;;;;;;;26.40;15.48;;;256.40;1689.60;;;;;;4863589;29;20081;-61
2022/04/15 05:31:09;;;;;;;25.85;16.55;;;256.50;1689.60;;;;;;4862940;29;20053;-61
2022/04/15 05:33:35;;;;;;;28.25;17.75;;;256.60;1689.60;;;;;;4862902;29;20034;-61
2022/04/15 05:36:01;;;;;;;29.15;17.88;;;256.70;1689.60;;;;;;4862962;29;20230;-61
2022/04/15 05:38:26;;;;;;;25.52;17.20;;;256.80;1689.60;;;;;;4863093;29;20056;-61
2022/04/15 05:40:52;;;;;;;27.25;18.27;;;256.90;1689.60;;;;;;4863169;29;20116;-61
2022/04/15 05:43:18;;;;;;;34.05;17.15;;;281.60;1715.20;;;;;;4863300;29;20063;-61
2022/04/15 05:45:43;;;;;;;35.25;16.83;;;281.70;1664.00;;;;;;4846363;29;20507;-61
2022/04/15 05:48:09;;;;;;;29.63;16.60;;;281.80;1664.00;;;;;;4862831;29;20026;-61
2022/04/15 05:50:35;;;;;;;24.95;15.82;;;282.00;1689.60;;;;;;4862813;29;20040;-61
2022/04/15 05:53:01;;;;;;;29.80;17.20;;;282.10;1664.00;;;;;;4863484;29;20038;-61
2022/04/15 05:55:26;;;;;;;34.10;17.42;;;282.20;1664.00;;;;;;4862398;29;20416;-61
2022/04/15 05:57:52;;;;;;;31.30;18.42;;;282.30;1664.00;;;;;;4862857;29;20038;-61
2022/04/15 06:00:18;;;;;;;27.60;18.08;;;282.40;1664.00;;;;;;4862875;29;20078;-60
2022/04/15 06:02:44;;;;;;;34.80;19.75;;;282.50;1638.40;;;;;;4859557;29;20038;-60
2022/04/15 06:05:10;;;;;;;41.47;20.75;;;307.20;1689.60;;;;;;4853192;29;20030;-61
2022/04/15 06:07:36;;;;;;;36.00;20.88;;;307.30;1689.60;;;;;;4852876;29;20094;-61
2022/04/15 06:10:03;;;;;;;30.45;19.75;;;307.40;1664.00;;;;;;4851972;29;20387;-60
2022/04/15 06:12:57;;;;;;;32.72;20.08;;;307.40;1664.00;;;;;;4853627;29;20051;-60
2022/04/15 06:15:33;;;;;;;35.38;19.35;;;307.60;1715.20;;;;;;4852895;29;20441;-60
2022/04/15 06:18:00;;;;;;;31.48;18.83;;;307.70;1689.60;;;;;;4851760;29;20029;-60
2022/04/15 06:20:27;;;;;;;36.75;19.00;;;307.70;1689.60;;;;;;4862275;29;20443;-60
2022/04/15 06:22:53;;;;;;;35.60;18.95;;;307.80;1664.00;;;;;;4862427;29;20060;-60
2022/04/15 06:25:19;;;;;;;31.13;17.23;;;307.90;1638.40;;;;;;4862376;29;20061;-60
2022/04/15 06:27:45;;;;;;;29.70;17.88;;;308.00;1638.40;;;;;;4862467;29;20033;-61
2022/04/15 06:30:11;;;;;;;45.10;20.60;;;332.80;1638.40;;;;;;4862384;29;20399;-61
2022/04/15 06:32:38;;;;;;;33.88;18.67;;;332.80;1612.80;;;;;;4847534;29;20137;-61
2022/04/15 06:35:05;;;;;;;28.40;17.08;;;333.00;1638.40;;;;;;4851150;29;20032;-60
2022/04/15 06:37:30;;;;;;;33.38;18.30;;;333.10;1587.20;;;;;;4851418;29;20102;-61
2022/04/15 06:39:56;;;;;;;37.53;20.13;;;333.20;1612.80;;;;;;4855997;29;20468;-60
2022/04/15 06:42:26;;;;;;;37.47;18.52;;;333.30;1587.20;;;;;;4835101;29;20233;-62
2022/04/15 06:44:52;;;;;;;30.90;16.60;;;333.50;1587.20;;;;;;4850768;29;20397;-61
2022/04/15 06:47:18;;;;;;;25.50;16.45;;;333.60;1612.80;;;;;;4846186;29;20148;-61
2022/04/15 06:49:45;;;;;;;29.85;17.42;;;333.70;1536.00;;;;;;4843359;29;20117;-60
2022/04/15 06:52:12;;;;;;;29.83;16.42;;;358.50;1536.00;;;;;;4843416;29;20071;-60
2022/04/15 06:54:37;;;;;;;26.95;15.45;;;358.60;1536.00;;;;;;4827098;29;20038;-61
2022/04/15 06:57:04;;;;;;;26.50;15.10;;;358.80;1536.00;;;;;;4843427;29;20030;-61
2022/04/15 06:59:30;;;;;;;24.88;16.55;;;358.90;1510.40;;;;;;4842230;29;20045;-61
2022/04/15 07:01:56;;;;;;;25.80;15.75;;;359.10;1510.40;;;;;;4857199;29;20038;-60
2022/04/15 07:04:23;;;;;;;24.10;14.80;;;359.30;1510.40;;;;;;4843201;29;20473;-60
2022/04/15 07:06:49;;;;;;;23.52;14.15;;;384.00;1484.80;;;;;;4843796;29;20078;-60
2022/04/15 07:09:14;;;;;;;20.27;12.07;;;384.20;1459.20;;;;;;4856819;29;20030;-60
2022/04/15 07:11:41;;;;;;;18.70;11.57;;;384.40;1433.60;;;;;;4843142;29;20125;-60
2022/04/15 07:14:07;;;;;;;19.10;12.35;;;384.50;1408.00;;;;;;4843296;29;20079;-60
2022/04/15 07:16:34;;;;;;;22.45;13.50;;;384.80;1408.00;;;;;;4842799;29;20030;-60
2022/04/15 07:19:04;;;;;;;20.05;13.65;;;409.60;1433.60;;;;;;4843060;29;20034;-61
2022/04/15 07:21:35;;;;;;;24.30;13.95;;;409.70;1408.00;;;;;;4842982;29;20045;-60
2022/04/15 07:24:00;;;;;;;23.35;14.45;;;410.00;1382.40;;;;;;4843178;29;20082;-60
2022/04/15 07:26:26;;;;;;;21.75;14.20;;;410.10;1408.00;;;;;;4856416;29;20038;-60
2022/04/15 07:28:52;;;;;;;26.92;14.85;;;410.30;1382.40;;;;;;4843113;29;20113;-60
2022/04/15 07:31:18;;;;;;;22.20;15.52;;;410.50;1356.80;;;;;;4842713;29;20050;-60
2022/04/15 07:33:46;;;;;;;26.02;15.88;;;435.20;1331.20;;;;;;4842572;29;20037;-60
2022/04/15 07:38:57;;;;;;;23.83;14.82;;;435.50;1305.60;;;;;;4843446;29;20077;-61
2022/04/15 07:41:23;;;;;;;23.27;14.75;;;435.70;1331.20;;;;;;4842947;29;20034;-61
2022/04/15 07:43:48;;;;;;;19.15;13.40;;;435.90;1305.60;;;;;;4842414;29;20037;-61
2022/04/15 07:46:15;;;;;;;22.08;14.15;;;436.00;1305.60;;;;;;4842993;29;20030;-60
2022/04/15 07:48:41;;;;;;;24.33;12.32;;;436.10;1305.60;;;;;;4842749;29;20513;-60
2022/04/15 07:51:07;;;;;;;23.75;14.07;;;460.90;1305.60;;;;;;4842831;29;20041;-61
2022/04/15 07:53:32;;;;;;;26.27;15.27;;;461.00;1305.60;;;;;;4842618;29;20034;-61
2022/04/15 07:55:58;;;;;;;26.42;14.52;;;461.10;1280.00;;;;;;4844056;29;20038;-60
2022/04/15 07:58:24;;;;;;;23.38;15.70;;;461.20;1254.40;;;;;;4846727;29;20400;-61
2022/04/15 08:00:50;;;;;;;30.70;14.85;;;461.30;1254.40;;;;;;4846138;29;20086;-61
2022/04/15 08:03:20;;;;;;;28.58;15.38;;;461.40;1254.40;;;;;;4846757;29;20034;-61
2022/04/15 08:05:49;;;;;;;23.23;13.35;;;461.40;1228.80;;;;;;4846480;29;20030;-60
2022/04/15 08:08:15;;;;;;;27.98;13.88;;;461.50;1203.20;;;;;;4846544;29;20097;-60
2022/04/15 08:10:41;;;;;;;17.83;12.60;;;461.60;1203.20;;;;;;4846455;29;20556;-61
2022/04/15 08:13:07;;;;;;;22.23;13.30;;;461.60;1152.00;;;;;;4829552;29;20102;-61
2022/04/15 08:15:33;;;;;;;25.15;13.45;;;486.40;1152.00;;;;;;4846658;29;20452;-61
2022/04/15 08:17:59;;;;;;;21.73;13.90;;;486.50;1152.00;;;;;;4846082;29;20038;-61
2022/04/15 08:20:25;;;;;;;30.73;13.82;;;486.60;1152.00;;;;;;4846214;29;20026;-61
2022/04/15 08:22:51;;;;;;;21.08;12.38;;;486.70;1100.80;;;;;;4846209;29;20025;-60
2022/04/15 08:25:17;;;;;;;18.83;12.23;;;486.80;1100.80;;;;;;4845736;29;20385;-61
2022/04/15 08:27:42;;;;;;;24.92;12.27;;;486.90;1075.20;;;;;;4846238;29;20392;-61
2022/04/15 08:30:08;;;;;;;18.70;12.15;;;487.00;1075.20;;;;;;4845871;29;20485;-61
2022/04/15 08:32:34;;;;;;;16.63;10.32;;;487.10;1075.20;;;;;;4845547;29;20042;-61
2022/04/15 08:35:01;;;;;;;19.58;10.60;;;487.30;1049.60;;;;;;4845666;29;20026;-61
2022/04/15 08:37:27;;;;;;;16.48;10.85;;;512.10;1024.00;;;;;;4845900;29;20388;-61
2022/04/15 08:39:53;;;;;;;15.98;10.05;;;512.30;972.80;;;;;;4844346;29;20124;-61
2022/04/15 08:42:20;;;;;;;15.20;10.80;;;512.60;972.80;;;;;;4845928;29;20389;-61
2022/04/15 08:44:50;;;;;;;16.38;9.82;;;512.80;947.20;;;;;;4845950;29;20457;-61
2022/04/15 08:47:16;;;;;;;14.32;10.77;;;537.60;947.20;;;;;;4845768;29;20034;-61
2022/04/15 08:49:42;;;;;;;24.58;9.93;;;537.80;896.00;;;;;;4845688;29;20030;-61
2022/04/15 08:52:12;;;;;;;16.33;8.65;;;538.10;896.00;;;;;;4828997;29;20046;-61
2022/04/15 08:54:38;;;;;;;18.25;9.55;;;538.10;844.80;;;;;;4845607;29;20026;-61
2022/04/15 08:57:05;;;;;;;15.25;9.10;;;538.40;844.80;;;;;;4845517;29;20038;-61
2022/04/15 08:59:31;;;;;;;17.33;8.77;;;538.50;793.60;;;;;;4845832;29;20026;-61
2022/04/15 09:01:56;;;;;;;14.55;8.98;;;563.30;793.60;;;;;;4845542;29;20034;-61
2022/04/15 09:04:23;;;;;;;18.40;9.80;;;563.40;819.20;;;;;;4843708;29;20106;-62
2022/04/15 09:06:56;;;;;;;18.08;9.38;;;563.60;793.60;;;;;;4845207;29;20042;-61
2022/04/15 09:09:29;;;;;;;16.85;8.98;;;563.70;742.40;;;;;;4845192;29;20536;-61
2022/04/15 09:11:56;;;;;;;10.87;6.57;;;563.80;768.00;;;;;;4845056;29;20438;-62
2022/04/15 09:14:23;;;;;;;7.95;5.13;;;564.00;716.80;;;;;;4845384;29;20033;-61
2022/04/15 09:16:49;;;;;;;16.20;6.50;;;564.10;640.00;;;;;;4845209;29;20034;-62
2022/04/15 09:19:16;;;;;;;13.40;7.18;;;588.80;640.00;;;;;;4845335;29;20037;-61
2022/04/15 09:21:54;;;;;;;10.23;6.57;;;564.10;691.20;;;;;;4845238;29;20057;-61
2022/04/15 09:24:42;;;;;;;13.02;7.43;;;588.80;716.80;;;;;;4845132;29;20108;-62
2022/04/15 09:27:08;;;;;;;14.68;6.88;;;588.80;742.40;;;;;;4845044;29;20037;-62
2022/04/15 09:29:34;;;;;;;14.57;6.72;;;589.00;691.20;;;;;;4844934;29;20030;-62
2022/04/15 09:32:15;;;;;;;18.10;7.65;;;589.00;665.60;;;;;;4843020;29;20378;-63
2022/04/15 09:34:58;;;;;;;14.90;7.60;;;589.20;614.40;;;;;;4844726;29;20034;-62
2022/04/15 09:37:51;;;;;;;23.70;9.23;;;589.40;691.20;;;;;;4845275;29;20053;-62
2022/04/15 09:40:18;;;;;;;17.67;8.32;;;589.50;665.60;;;;;;4841996;29;20041;-61
2022/04/15 09:42:55;;;;;;;11.95;7.82;;;589.60;691.20;;;;;;4812447;29;20041;-62
2022/04/15 09:45:29;;;;;;;14.70;8.27;;;589.70;640.00;;;;;;4841665;29;20402;-62
2022/04/15 09:48:02;;;;;;;13.00;8.48;;;614.40;640.00;;;;;;4842416;29;20034;-61
2022/04/15 09:50:28;;;;;;;11.35;8.23;;;614.40;640.00;;;;;;4844018;29;20027;-62
2022/04/15 09:53:14;;;;;;;15.95;9.45;;;614.40;640.00;;;;;;4844333;29;20467;-62
2022/04/15 09:55:42;;;;;;;12.50;8.65;;;614.60;665.60;;;;;;4844323;29;20520;-61
2022/04/15 09:58:15;;;;;;;19.63;9.45;;;614.70;640.00;;;;;;4844190;29;20038;-62
2022/04/15 10:00:43;;;;;;;16.17;9.00;;;614.60;640.00;;;;;;4844147;29;20453;-63
2022/04/15 10:03:14;;;;;;;17.02;7.85;;;614.50;640.00;;;;;;4843677;29;20038;-62
2022/04/15 10:05:41;;;;;;;18.73;8.20;;;614.60;640.00;;;;;;4838813;29;20477;-62
2022/04/15 10:08:08;;;;;;;13.05;8.13;;;614.80;614.40;;;;;;4844286;29;20025;-62
2022/04/15 10:10:35;;;;;;;14.48;8.20;;;614.90;640.00;;;;;;4857634;29;20038;-62
2022/04/15 10:13:06;;;;;;;15.18;8.00;;;615.10;614.40;;;;;;4843174;29;20557;-62
2022/04/15 10:15:33;;;;;;;12.15;8.05;;;615.20;614.40;;;;;;4843389;29;20038;-61
2022/04/15 10:18:00;;;;;;;15.00;7.90;;;615.20;614.40;;;;;;4826975;29;20040;-62
2022/04/15 10:20:27;;;;;;;14.85;7.80;;;615.20;640.00;;;;;;4843501;29;20093;-61
2022/04/15 10:22:55;;;;;;;15.93;6.95;;;615.30;614.40;;;;;;4842589;29;20405;-62
2022/04/15 10:25:21;;;;;;;11.35;5.85;;;640.00;614.40;;;;;;4842446;29;20045;-62
2022/04/15 10:27:48;;;;;;;12.85;6.00;;;640.10;588.80;;;;;;4825396;29;20056;-62
2022/04/15 10:30:20;;;;;;;9.90;6.18;;;640.30;588.80;;;;;;4842070;29;20058;-62
2022/04/15 10:32:55;;;;;;;9.45;6.85;;;640.30;563.20;;;;;;4842452;29;20038;-62
2022/04/15 10:35:29;;;;;;;11.07;5.38;;;640.30;588.80;;;;;;4840281;29;20477;-62
2022/04/15 10:38:13;;;;;;;10.48;6.10;;;640.30;563.20;;;;;;4841792;29;20424;-61
2022/04/15 10:40:44;;;;;;;11.10;5.85;;;640.40;563.20;;;;;;4840683;29;20461;-62
2022/04/15 10:43:19;;;;;;;10.00;5.53;;;640.50;563.20;;;;;;4850989;29;20404;-61
2022/04/15 10:45:45;;;;;;;8.75;6.07;;;640.50;537.60;;;;;;4851027;29;20026;-63
2022/04/15 10:48:11;;;;;;;9.43;5.38;;;640.50;537.60;;;;;;4851369;29;20158;-63
2022/04/15 10:50:39;;;;;;;5.47;4.72;;;640.60;563.20;;;;;;4849001;29;20026;-61
2022/04/15 10:53:17;;;;;;;12.85;5.38;;;640.60;512.00;;;;;;4852148;29;20121;-62
2022/04/15 10:55:47;;;;;;;8.75;5.55;;;640.80;512.00;;;;;;4852783;29;20480;-62
2022/04/15 10:58:14;;;;;;;8.65;5.00;;;640.80;512.00;;;;;;4849095;29;20473;-61
2022/04/15 11:03:28;;;;;;;7.80;4.75;;;640.80;486.40;;;;;;4853668;29;20117;-62
2022/04/15 11:06:00;;;;;;;9.23;4.85;;;640.80;486.40;;;;;;4861582;29;20022;-62
2022/04/15 11:08:27;;;;;;;10.90;5.07;;;640.70;486.40;;;;;;4845161;29;20472;-62
2022/04/15 11:10:57;;;;;;;11.00;5.20;;;640.80;460.80;;;;;;4861616;29;20037;-62
2022/04/15 11:13:27;;;;;;;10.35;5.47;;;640.80;512.00;;;;;;4861768;29;20486;-62
2022/04/15 11:15:57;;;;;;;10.23;4.80;;;640.80;486.40;;;;;;4861501;29;20033;-62
2022/04/15 11:18:23;;;;;;;11.05;5.03;;;640.90;486.40;;;;;;4861585;29;20121;-62
2022/04/15 11:20:49;;;;;;;8.13;4.65;;;640.80;486.40;;;;;;4861242;29;20025;-62
2022/04/15 11:23:16;;;;;;;7.00;4.40;;;640.80;512.00;;;;;;4861787;29;20044;-62
2022/04/15 11:25:42;;;;;;;17.50;4.65;;;640.80;512.00;;;;;;4861577;29;20113;-61
2022/04/15 11:28:09;;;;;;;10.65;4.35;;;640.90;512.00;;;;;;4861473;29;20127;-61
2022/04/15 11:30:35;;;;;;;8.20;4.38;;;665.60;537.60;;;;;;4860898;29;20045;-61
2022/04/15 11:33:04;;;;;;;7.43;4.13;;;665.70;512.00;;;;;;4856782;29;20512;-62
2022/04/15 11:35:35;;;;;;;10.18;4.18;;;665.70;512.00;;;;;;4858785;29;20124;-61
2022/04/15 11:38:09;;;;;;;7.07;4.55;;;665.60;512.00;;;;;;4861458;29;20137;-61
2022/04/15 11:40:36;;;;;;;8.45;4.75;;;640.90;460.80;;;;;;4861423;29;20476;-61
2022/04/15 11:43:09;;;;;;;8.95;4.15;;;665.60;512.00;;;;;;4861597;29;20095;-62
2022/04/15 11:45:41;;;;;;;10.98;4.40;;;665.60;537.60;;;;;;4861374;29;20460;-61
2022/04/15 11:48:20;;;;;;;9.88;5.25;;;665.60;512.00;;;;;;4861506;29;20056;-61
2022/04/15 11:50:47;;;;;;;6.45;4.30;;;665.60;512.00;;;;;;4859132;29;20082;-61
2022/04/15 11:53:13;;;;;;;7.35;4.20;;;665.80;537.60;;;;;;4848338;29;20565;-62
2022/04/15 11:56:05;;;;;;;8.43;4.60;;;665.90;537.60;;;;;;4846474;29;20090;-62
2022/04/15 11:58:35;;;;;;;8.15;4.80;;;666.00;512.00;;;;;;4823988;29;20037;-62
2022/04/15 12:01:02;;;;;;;8.38;4.45;;;665.70;512.00;;;;;;4842679;29;20033;-62
2022/04/15 12:03:28;;;;;;;6.45;3.95;;;665.80;486.40;;;;;;4854708;29;20030;-61
2022/04/15 12:05:57;;;;;;;9.02;4.53;;;665.80;486.40;;;;;;4850403;29;20029;-62
2022/04/15 12:08:24;;;;;;;7.45;3.92;;;665.90;512.00;;;;;;4851426;29;20033;-62
2022/04/15 12:10:50;;;;;;;8.48;3.80;;;666.00;512.00;;;;;;4853796;29;20058;-61